createdAt,value
2023-11-25T00:02:09.235Z,1.30
2023-11-25T00:05:03.631Z,1.10
2023-11-25T00:07:57.743Z,1.60
2023-11-25T00:10:51.229Z,1.40
2023-11-25T00:13:44.499Z,1.30
2023-11-25T00:16:37.087Z,1.30
2023-11-25T00:19:29.871Z,1.60
2023-11-25T00:22:22.736Z,1.50
2023-11-25T00:25:16.267Z,1.30
2023-11-25T00:28:11.175Z,1.40
2023-11-25T00:31:04.045Z,1.60
2023-11-25T00:33:56.635Z,1.30
2023-11-25T00:36:50.649Z,1.30
2023-11-25T00:39:43.340Z,1.50
2023-11-25T00:42:36.572Z,1.60
2023-11-25T00:45:29.317Z,1.60
2023-11-25T00:48:21.848Z,1.20
2023-11-25T00:51:14.443Z,1.30
2023-11-25T00:54:07.242Z,1.60
2023-11-25T00:56:59.936Z,1.50
2023-11-25T00:59:52.585Z,1.40
2023-11-25T01:02:45.422Z,1.50
2023-11-25T01:05:40.503Z,1.20
2023-11-25T01:08:34.037Z,1.30
2023-11-25T01:11:26.820Z,1.60
2023-11-25T01:14:20.030Z,1.50
2023-11-25T01:17:12.957Z,1.60
2023-11-25T01:20:10.830Z,1.50
2023-11-25T01:23:03.365Z,1.40
2023-11-25T01:25:55.972Z,1.40
2023-11-25T01:28:48.533Z,1.50
2023-11-25T01:31:41.407Z,1.50
2023-11-25T01:34:33.987Z,1.40
2023-11-25T01:37:27.819Z,1.60
2023-11-25T01:40:22.217Z,1.60
2023-11-25T01:43:15.371Z,1.50
2023-11-25T01:46:08.839Z,1.60
2023-11-25T01:49:01.388Z,1.70
2023-11-25T01:51:53.842Z,1.30
2023-11-25T01:54:46.317Z,1.40
2023-11-25T01:57:38.840Z,1.40
2023-11-25T02:00:31.381Z,1.40
2023-11-25T02:03:24.305Z,1.70
2023-11-25T02:06:16.834Z,1.30
2023-11-25T02:09:09.443Z,1.10
2023-11-25T02:12:02.976Z,1.40
2023-11-25T02:14:55.522Z,1.10
2023-11-25T02:17:50.141Z,1.20
2023-11-25T02:20:42.998Z,1.60
2023-11-25T02:23:35.434Z,1.20
2023-11-25T02:26:28.022Z,1.70
2023-11-25T02:29:20.566Z,1.20
2023-11-25T02:32:13.967Z,2.00
2023-11-25T02:35:08.288Z,2.10
2023-11-25T02:38:00.783Z,2.20
2023-11-25T02:40:54.850Z,2.10
2023-11-25T02:43:48.431Z,2.00
2023-11-25T02:46:45.486Z,1.60
2023-11-25T02:49:38.135Z,1.40
2023-11-25T02:52:30.765Z,1.40
2023-11-25T02:55:23.250Z,1.50
2023-11-25T02:58:16.315Z,1.50
2023-11-25T03:01:13.064Z,1.50
2023-11-25T03:04:06.819Z,1.60
2023-11-25T03:07:05.565Z,1.50
2023-11-25T03:09:58.433Z,1.50
2023-11-25T03:12:51.621Z,1.50
2023-11-25T03:15:44.236Z,1.50
2023-11-25T03:18:36.746Z,1.50
2023-11-25T03:21:29.212Z,1.60
2023-11-25T03:24:25.288Z,1.60
2023-11-25T03:27:17.857Z,1.60
2023-11-25T03:30:13.638Z,1.30
2023-11-25T03:33:06.513Z,1.50
2023-11-25T03:36:01.339Z,1.40
2023-11-25T03:38:55.313Z,1.40
2023-11-25T03:41:48.893Z,1.60
2023-11-25T03:44:41.644Z,1.40
2023-11-25T03:47:34.371Z,1.40
2023-11-25T03:50:26.815Z,1.50
2023-11-25T03:53:19.935Z,1.50
2023-11-25T03:56:12.458Z,1.40
2023-11-25T03:59:04.974Z,1.70
2023-11-25T04:01:57.861Z,1.50
2023-11-25T04:04:50.613Z,1.50
2023-11-25T04:07:44.950Z,1.40
2023-11-25T04:10:38.263Z,1.50
2023-11-25T04:13:30.919Z,1.70
2023-11-25T04:16:23.519Z,1.20
2023-11-25T04:19:17.207Z,1.50
2023-11-25T04:22:11.421Z,1.40
2023-11-25T04:25:04.220Z,1.50
2023-11-25T04:27:56.707Z,1.40
2023-11-25T04:30:49.127Z,1.90
2023-11-25T04:33:41.603Z,1.40
2023-11-25T04:36:36.110Z,1.60
2023-11-25T04:39:28.767Z,1.40
2023-11-25T04:42:21.179Z,1.40
2023-11-25T04:45:17.910Z,1.40
2023-11-25T04:48:12.990Z,1.50
2023-11-25T04:51:06.184Z,1.60
2023-11-25T04:53:58.683Z,1.40
2023-11-25T04:56:51.106Z,1.70
2023-11-25T04:59:43.625Z,1.30
2023-11-25T05:02:36.194Z,1.30
2023-11-25T05:05:28.880Z,1.30
2023-11-25T05:08:22.401Z,1.70
2023-11-25T05:11:14.858Z,1.80
2023-11-25T05:14:07.599Z,1.70
2023-11-25T05:17:00.139Z,1.60
2023-11-25T05:19:52.784Z,1.50
2023-11-25T05:22:45.302Z,1.70
2023-11-25T05:25:37.869Z,1.70
2023-11-25T05:28:31.546Z,1.50
2023-11-25T05:31:24.355Z,1.80
2023-11-25T05:34:16.895Z,1.70
2023-11-25T05:37:09.764Z,2.00
2023-11-25T05:40:06.712Z,1.60
2023-11-25T05:43:01.794Z,1.80
2023-11-25T05:45:54.341Z,1.70
2023-11-25T05:48:46.911Z,1.50
2023-11-25T05:51:43.245Z,1.50
2023-11-25T05:54:36.020Z,1.80
2023-11-25T05:57:28.442Z,2.20
2023-11-25T06:00:24.363Z,1.70
2023-11-25T06:03:17.454Z,1.70
2023-11-25T06:06:11.925Z,1.60
2023-11-25T06:09:06.325Z,1.90
2023-11-25T06:11:58.787Z,1.50
2023-11-25T06:14:52.907Z,1.70
2023-11-25T06:17:46.758Z,1.50
2023-11-25T06:20:40.007Z,1.30
2023-11-25T06:23:33.466Z,1.80
2023-11-25T06:26:26.023Z,2.00
2023-11-25T06:29:18.591Z,1.50
2023-11-25T06:32:11.664Z,1.40
2023-11-25T06:35:05.224Z,1.90
2023-11-25T06:37:57.954Z,2.40
2023-11-25T06:40:50.649Z,2.20
2023-11-25T06:43:45.047Z,1.80
2023-11-25T06:46:37.737Z,1.50
2023-11-25T06:49:30.506Z,1.60
2023-11-25T06:52:24.747Z,1.60
2023-11-25T06:55:17.443Z,1.90
2023-11-25T06:58:11.934Z,1.70
2023-11-25T07:01:05.678Z,2.00
2023-11-25T07:03:58.253Z,1.70
2023-11-25T07:06:51.356Z,1.60
2023-11-25T07:09:44.486Z,1.70
2023-11-25T07:12:38.045Z,1.40
2023-11-25T07:15:31.312Z,2.10
2023-11-25T07:18:26.097Z,1.60
2023-11-25T07:21:21.018Z,2.00
2023-11-25T07:24:15.569Z,2.00
2023-11-25T07:27:11.853Z,1.50
2023-11-25T07:30:06.409Z,1.70
2023-11-25T07:32:58.906Z,2.00
2023-11-25T07:35:51.681Z,2.00
2023-11-25T07:38:44.430Z,1.60
2023-11-25T07:41:37.215Z,2.00
2023-11-25T07:44:31.806Z,2.00
2023-11-25T07:47:25.644Z,1.80
2023-11-25T07:50:18.818Z,2.00
2023-11-25T07:53:11.395Z,2.20
2023-11-25T07:56:03.884Z,1.90
2023-11-25T07:58:57.827Z,2.10
2023-11-25T08:01:52.872Z,2.00
2023-11-25T08:04:45.934Z,2.70
2023-11-25T08:07:38.539Z,2.50
2023-11-25T08:10:35.389Z,2.10
2023-11-25T08:13:28.259Z,1.90
2023-11-25T08:16:20.920Z,3.20
2023-11-25T08:19:15.858Z,2.30
2023-11-25T08:22:08.826Z,2.50
2023-11-25T08:25:09.003Z,2.30
2023-11-25T08:28:01.683Z,2.10
2023-11-25T08:30:54.206Z,2.60
2023-11-25T08:33:46.905Z,2.30
2023-11-25T08:36:53.922Z,2.70
2023-11-25T08:39:48.221Z,2.40
2023-11-25T08:42:42.854Z,2.60
2023-11-25T08:45:35.443Z,2.70
2023-11-25T08:48:28.086Z,2.40
2023-11-25T08:51:20.774Z,2.50
2023-11-25T08:54:13.342Z,2.90
2023-11-25T08:57:08.885Z,2.80
2023-11-25T09:00:01.477Z,2.80
2023-11-25T09:02:55.258Z,2.20
2023-11-25T09:05:50.153Z,2.20
2023-11-25T09:08:43.219Z,2.70
2023-11-25T09:11:35.740Z,2.60
2023-11-25T09:14:29.927Z,3.30
2023-11-25T09:17:22.494Z,10.70
2023-11-25T09:20:17.869Z,4.00
2023-11-25T09:23:10.351Z,2.70
2023-11-25T09:26:03.639Z,2.80
2023-11-25T09:28:56.465Z,2.80
2023-11-25T09:31:49.782Z,2.90
2023-11-25T09:34:42.810Z,2.70
2023-11-25T09:37:35.463Z,2.60
2023-11-25T09:40:28.021Z,3.00
2023-11-25T09:43:21.788Z,3.20
2023-11-25T09:46:15.642Z,3.10
2023-11-25T09:49:08.338Z,2.50
2023-11-25T09:52:05.436Z,3.70
2023-11-25T09:55:00.022Z,2.70
2023-11-25T09:57:54.956Z,2.70
2023-11-25T10:00:47.613Z,2.60
2023-11-25T10:03:40.954Z,2.70
2023-11-25T10:06:34.450Z,2.50
2023-11-25T10:09:27.787Z,2.70
2023-11-25T10:12:21.023Z,2.70
2023-11-25T10:15:13.995Z,2.80
2023-11-25T10:18:08.035Z,2.30
2023-11-25T10:21:00.782Z,2.60
2023-11-25T10:23:55.599Z,2.50
2023-11-25T10:26:48.452Z,3.30
2023-11-25T10:29:41.697Z,3.00
2023-11-25T10:32:34.999Z,2.90
2023-11-25T10:35:27.583Z,2.60
2023-11-25T10:38:23.100Z,2.70
2023-11-25T10:41:16.051Z,2.60
2023-11-25T10:44:10.247Z,2.70
2023-11-25T10:47:03.962Z,3.50
2023-11-25T10:49:56.738Z,2.70
2023-11-25T10:52:49.759Z,2.50
2023-11-25T10:55:43.442Z,3.00
2023-11-25T10:58:36.753Z,2.50
2023-11-25T11:01:29.375Z,3.00
2023-11-25T11:04:27.086Z,3.20
2023-11-25T11:07:20.585Z,2.90
2023-11-25T11:10:13.330Z,2.70
2023-11-25T11:13:09.309Z,2.90
2023-11-25T11:16:03.710Z,2.80
2023-11-25T11:18:56.392Z,3.50
2023-11-25T11:21:51.579Z,3.20
2023-11-25T11:24:59.648Z,2.80
2023-11-25T11:27:56.660Z,3.70
2023-11-25T11:30:54.403Z,2.40
2023-11-25T11:33:47.405Z,2.70
2023-11-25T11:36:39.990Z,2.70
2023-11-25T11:39:39.096Z,3.30
2023-11-25T11:42:34.367Z,3.30
2023-11-25T11:45:27.603Z,2.90
2023-11-25T11:48:20.219Z,3.20
2023-11-25T11:51:12.827Z,2.80
2023-11-25T11:54:29.450Z,4.20
2023-11-25T11:57:22.445Z,3.00
2023-11-25T12:00:17.141Z,2.90
2023-11-25T12:03:10.162Z,3.80
2023-11-25T12:06:02.987Z,3.50
2023-11-25T12:08:55.425Z,3.70
2023-11-25T12:12:02.376Z,3.10
2023-11-25T12:14:56.516Z,3.50
2023-11-25T12:17:49.354Z,3.90
2023-11-25T12:20:42.032Z,3.30
2023-11-25T12:23:44.850Z,2.60
2023-11-25T12:26:44.387Z,3.20
2023-11-25T12:29:37.510Z,2.70
2023-11-25T12:32:30.255Z,8.40
2023-11-25T12:35:25.113Z,3.90
2023-11-25T12:38:19.656Z,3.30
2023-11-25T12:41:16.390Z,2.50
2023-11-25T12:44:12.158Z,2.80
2023-11-25T12:47:08.143Z,2.80
2023-11-25T12:50:12.924Z,3.80
2023-11-25T12:53:07.117Z,2.50
2023-11-25T12:56:00.340Z,2.50
2023-11-25T12:58:53.104Z,3.30
2023-11-25T13:01:45.821Z,2.70
2023-11-25T13:04:38.527Z,3.40
2023-11-25T13:07:34.854Z,2.80
2023-11-25T13:13:21.535Z,3.20
2023-11-25T13:16:14.689Z,3.40
2023-11-25T13:19:09.867Z,3.20
2023-11-25T13:22:02.610Z,3.40
2023-11-25T13:24:55.156Z,2.70
2023-11-25T13:27:48.130Z,2.90
2023-11-25T13:30:41.174Z,2.80
2023-11-25T13:33:33.872Z,3.30
2023-11-25T13:36:26.950Z,3.30
2023-11-25T13:39:22.997Z,3.30
2023-11-25T13:42:15.606Z,3.20
2023-11-25T13:45:11.229Z,3.10
2023-11-25T13:48:06.137Z,3.50
2023-11-25T13:51:00.108Z,3.20
2023-11-25T13:53:53.158Z,3.10
2023-11-25T13:56:46.117Z,3.00
2023-11-25T13:59:38.624Z,3.30
2023-11-25T14:02:32.699Z,2.90
2023-11-25T14:05:25.574Z,3.10
2023-11-25T14:08:19.885Z,2.90
2023-11-25T14:11:12.524Z,3.20
2023-11-25T14:14:06.954Z,2.80
2023-11-25T14:16:59.910Z,3.40
2023-11-25T14:19:52.513Z,2.90
2023-11-25T14:22:46.365Z,2.90
2023-11-25T14:25:40.005Z,2.60
2023-11-25T14:28:33.031Z,2.50
2023-11-25T14:31:27.719Z,3.10
2023-11-25T14:34:20.351Z,2.80
2023-11-25T14:37:13.573Z,2.50
2023-11-25T14:40:08.564Z,2.30
2023-11-25T14:43:01.499Z,1.90
2023-11-25T14:45:54.007Z,2.20
2023-11-25T14:48:46.587Z,2.20
2023-11-25T14:51:39.186Z,2.50
2023-11-25T14:54:31.704Z,1.80
2023-11-25T14:57:24.161Z,1.70
2023-11-25T15:00:18.194Z,2.10
2023-11-25T15:03:10.872Z,2.20
2023-11-25T15:06:03.683Z,2.40
2023-11-25T15:08:56.359Z,2.30
2023-11-25T15:11:48.807Z,2.30
2023-11-25T15:14:42.374Z,2.10
2023-11-25T15:17:34.985Z,2.20
2023-11-25T15:20:27.973Z,2.10
2023-11-25T15:23:21.321Z,2.10
2023-11-25T15:26:13.978Z,2.50
2023-11-25T15:29:07.215Z,1.70
2023-11-25T15:32:03.348Z,2.20
2023-11-25T15:34:57.303Z,2.50
2023-11-25T15:37:49.989Z,2.20
2023-11-25T15:40:42.762Z,2.10
2023-11-25T15:43:38.721Z,2.60
2023-11-25T15:46:31.785Z,2.60
2023-11-25T15:49:25.561Z,3.10
2023-11-25T15:52:18.066Z,2.90
2023-11-25T15:55:12.658Z,2.60
2023-11-25T15:58:05.458Z,3.30
2023-11-25T16:00:58.358Z,6.60
2023-11-25T16:03:50.905Z,5.10
2023-11-25T16:06:44.037Z,6.50
2023-11-25T16:09:36.882Z,4.10
2023-11-25T16:12:30.769Z,4.60
2023-11-25T16:15:23.478Z,2.90
2023-11-25T16:18:16.292Z,2.90
2023-11-25T16:21:10.044Z,3.80
2023-11-25T16:24:02.514Z,3.50
2023-11-25T16:26:56.070Z,3.90
2023-11-25T16:29:50.743Z,2.60
2023-11-25T16:32:45.172Z,3.60
2023-11-25T16:35:39.075Z,4.20
2023-11-25T16:38:33.663Z,3.10
2023-11-25T16:41:27.943Z,3.20
2023-11-25T16:44:22.390Z,2.30
2023-11-25T16:47:15.943Z,2.20
2023-11-25T16:50:09.992Z,3.10
2023-11-25T16:53:02.682Z,2.80
2023-11-25T16:55:55.424Z,2.40
2023-11-25T16:58:45.725Z,2.50
2023-11-25T17:01:41.524Z,2.20
2023-11-25T17:04:34.345Z,2.30
2023-11-25T17:07:26.995Z,2.00
2023-11-25T17:10:19.466Z,1.80
2023-11-25T17:13:12.986Z,1.80
2023-11-25T17:16:06.157Z,2.30
2023-11-25T17:18:58.893Z,1.90
2023-11-25T17:21:51.368Z,2.00
2023-11-25T17:24:43.909Z,2.70
2023-11-25T17:27:36.427Z,2.10
2023-11-25T17:30:30.088Z,2.10
2023-11-25T17:33:22.583Z,2.00
2023-11-25T17:36:15.615Z,2.10
2023-11-25T17:39:09.903Z,1.80
2023-11-25T17:42:02.646Z,2.00
2023-11-25T17:44:55.124Z,2.30
2023-11-25T17:47:47.637Z,2.00
2023-11-25T17:50:40.546Z,3.60
2023-11-25T17:53:33.089Z,4.70
2023-11-25T17:56:25.544Z,3.20
2023-11-25T17:59:18.436Z,2.10
2023-11-25T18:02:11.181Z,2.20
2023-11-25T18:05:04.561Z,2.10
2023-11-25T18:07:58.376Z,1.90
2023-11-25T18:10:51.066Z,1.80
2023-11-25T18:13:47.962Z,1.80
2023-11-25T18:16:40.831Z,2.10
2023-11-25T18:19:33.974Z,2.30
2023-11-25T18:22:26.644Z,2.10
2023-11-25T18:25:19.332Z,2.90
2023-11-25T18:28:11.783Z,3.60
2023-11-25T18:31:04.315Z,7.50
2023-11-25T18:33:58.177Z,5.10
2023-11-25T18:36:50.759Z,5.00
2023-11-25T18:39:43.428Z,12.90
2023-11-25T18:42:38.054Z,11.90
2023-11-25T18:45:30.549Z,6.50
2023-11-25T18:48:23.317Z,5.20
2023-11-25T18:51:15.813Z,9.90
2023-11-25T18:54:09.731Z,5.10
2023-11-25T18:57:03.071Z,3.90
2023-11-25T18:59:55.610Z,3.60
2023-11-25T19:02:48.775Z,2.90
2023-11-25T19:05:41.849Z,2.70
2023-11-25T19:08:34.619Z,2.40
2023-11-25T19:11:27.376Z,2.00
2023-11-25T19:14:19.972Z,2.20
2023-11-25T19:17:13.044Z,2.40
2023-11-25T19:20:12.261Z,2.90
2023-11-25T19:23:05.329Z,2.90
2023-11-25T19:25:58.430Z,2.70
2023-11-25T19:28:51.127Z,2.90
2023-11-25T19:31:43.814Z,2.50
2023-11-25T19:34:36.542Z,2.50
2023-11-25T19:37:29.438Z,2.90
2023-11-25T19:40:22.698Z,3.50
2023-11-25T19:43:15.626Z,2.60
2023-11-25T19:46:11.583Z,3.50
2023-11-25T19:49:06.130Z,3.10
2023-11-25T19:51:58.695Z,3.30
2023-11-25T19:54:51.182Z,2.80
2023-11-25T19:57:43.669Z,4.10
2023-11-25T20:00:46.444Z,5.30
2023-11-25T20:03:45.866Z,4.40
2023-11-25T20:06:39.536Z,5.20
2023-11-25T20:09:31.944Z,5.00
2023-11-25T20:12:24.886Z,5.80
2023-11-25T20:15:19.522Z,6.90
2023-11-25T20:18:13.226Z,5.90
2023-11-25T20:21:05.906Z,7.70
2023-11-25T20:23:58.708Z,6.40
2023-11-25T20:26:51.435Z,5.40
2023-11-25T20:29:43.931Z,13.50
2023-11-25T20:32:37.198Z,9.30
2023-11-25T20:35:29.927Z,5.20
2023-11-25T20:38:23.853Z,5.10
2023-11-25T20:41:16.509Z,4.30
2023-11-25T20:44:11.101Z,3.70
2023-11-25T20:47:03.825Z,3.00
2023-11-25T20:49:56.384Z,2.50
2023-11-25T20:52:48.990Z,2.70
2023-11-25T20:55:41.718Z,4.10
2023-11-25T20:58:34.790Z,2.90
2023-11-25T21:01:27.289Z,2.60
2023-11-25T21:04:19.756Z,2.50
2023-11-25T21:07:12.252Z,2.30
2023-11-25T21:10:06.024Z,2.50
2023-11-25T21:13:00.004Z,2.40
2023-11-25T21:15:52.693Z,2.50
2023-11-25T21:18:46.346Z,2.50
2023-11-25T21:21:38.858Z,3.30
2023-11-25T21:24:31.320Z,4.10
2023-11-25T21:27:23.819Z,6.40
2023-11-25T21:30:17.690Z,4.60
2023-11-25T21:33:10.335Z,12.90
2023-11-25T21:36:02.870Z,16.50
2023-11-25T21:38:56.385Z,13.60
2023-11-25T21:41:48.847Z,15.40
2023-11-25T21:44:41.322Z,22.90
2023-11-25T21:47:33.874Z,11.70
2023-11-25T21:50:28.535Z,16.90
2023-11-25T21:53:21.295Z,18.00
2023-11-25T21:56:13.869Z,17.50
2023-11-25T21:59:06.759Z,15.50
2023-11-25T22:01:59.285Z,14.90
2023-11-25T22:04:52.030Z,14.80
2023-11-25T22:07:44.934Z,12.50
2023-11-25T22:10:40.844Z,13.90
2023-11-25T22:13:34.396Z,11.00
2023-11-25T22:16:26.942Z,11.80
2023-11-25T22:19:19.706Z,8.00
2023-11-25T22:22:13.006Z,10.80
2023-11-25T22:25:12.829Z,8.70
2023-11-25T22:28:08.508Z,8.40
2023-11-25T22:31:02.228Z,6.70
2023-11-25T22:33:56.086Z,6.30
2023-11-25T22:36:48.540Z,6.60
2023-11-25T22:39:40.998Z,4.30
2023-11-25T22:42:33.450Z,3.90
2023-11-25T22:45:27.000Z,3.00
2023-11-25T22:48:20.390Z,4.20
2023-11-25T22:51:12.880Z,3.00
2023-11-25T22:54:06.748Z,3.20
2023-11-25T22:57:01.222Z,2.70
2023-11-25T22:59:55.258Z,2.70
2023-11-25T23:02:48.705Z,2.50
2023-11-25T23:05:42.621Z,2.40
2023-11-25T23:08:38.461Z,2.40
2023-11-25T23:11:32.160Z,2.70
2023-11-25T23:14:24.853Z,2.70
2023-11-25T23:17:19.311Z,2.50
2023-11-25T23:20:14.161Z,2.10
2023-11-25T23:23:08.140Z,2.00
2023-11-25T23:26:02.247Z,2.20
2023-11-25T23:28:54.881Z,2.40
2023-11-25T23:31:48.626Z,2.40
2023-11-25T23:34:41.176Z,2.50
2023-11-25T23:37:34.981Z,2.30
2023-11-25T23:40:28.685Z,2.20
2023-11-25T23:43:21.356Z,2.10
2023-11-25T23:46:14.059Z,2.20
2023-11-25T23:49:06.724Z,2.00
2023-11-25T23:52:00.421Z,2.20
2023-11-25T23:54:53.438Z,2.20
2023-11-25T23:57:45.995Z,2.20
